Artesia, Mississippi
Current Conditions -  °F | °C
As of 11:50 AM on Friday 19 Dec 2014 (Local Time) from KGTR Reporting Station
Broken Clouds Broken Clouds  
Wind Chill:   Ceiling: 12000
Heat Index:   Visibility: 10mi
Dew Point:   Wind: 5mph
Humidity: 71%   Direction: 70°ENE
Pressure: 30.21"   Gusts: NA
Location:  33.42°N, 88.64°W
Report Text: KGTR 191750Z 07004KT 10SM FEW040 BKN120 08/03 A3021
Loading
Personal Weather Stations






























Interactive Weather Map New forecast layout! Learn more

10-Day Weather Forecast

Advertisements
Track Severe Weather on mobile